Time;durP1;ratioP1;P1;durP2;ratioP2;P2;SDS_P1;SDS_P2;PMS_P1;PMS_P2;Temp;Humidity;BMP_temperature;BMP_pressure;BME280_temperature;BME280_humidity;BME280_pressure;Samples;Min_cycle;Max_cycle;Signal;HPM_P1;HPM_P2
2021/04/13 00:02:17;;;;;;;;;;;;;;;4.70;71.71;102145.48;1813466;78;20416;-87
2021/04/13 00:04:45;;;;;;;;;;;;;;;4.72;71.70;102146.48;1813517;77;21888;-86
2021/04/13 00:07:12;;;;;;;;;;;;;;;4.72;71.69;102151.70;1857117;77;20245;-86
2021/04/13 00:09:39;;;;;;;;;;;;;;;4.70;71.63;102154.20;1788749;79;20292;-86
2021/04/13 00:12:09;;;;;;;;;;;;;;;4.68;71.66;102155.80;1817922;79;20280;-86
2021/04/13 00:14:51;;;;;;;;;;;;;;;4.66;71.67;102152.17;1821192;78;20264;-86
2021/04/13 00:17:20;;;;;;;;;;;;;;;4.64;71.65;102142.93;1822939;78;21955;-86
2021/04/13 00:19:50;;;;;;;;;;;;;;;4.64;71.67;102144.64;1823876;78;20316;-86
2021/04/13 00:22:17;;;;;;;;;;;;;;;4.64;71.70;102141.63;1842542;77;20500;-88
2021/04/13 00:24:44;;;;;;;;;;;;;;;4.63;71.71;102136.30;1851836;77;20992;-87
2021/04/13 00:27:14;;;;;;;;;;;;;;;4.63;71.65;102130.67;1824784;77;20253;-88
2021/04/13 00:29:41;;;;;;;;;;;;;;;4.64;71.63;102135.11;1850394;77;21883;-89
2021/04/13 00:32:09;;;;;;;;;;;;;;;4.65;71.55;102132.09;1839354;77;20256;-88
2021/04/13 00:34:47;;;;;;;;;;;;;;;4.64;71.59;102132.91;1774301;78;20260;-88
2021/04/13 00:37:23;;;;;;;;;;;;;;;4.63;71.58;102131.98;1824585;78;20340;-88
2021/04/13 00:39:51;;;;;;;;;;;;;;;4.64;71.53;102127.28;1822933;77;20291;-86
2021/04/13 00:42:30;;;;;;;;;;;;;;;4.62;71.47;102127.98;1804240;79;22094;-87
2021/04/13 00:45:02;;;;;;;;;;;;;;;4.61;71.52;102124.85;1831600;77;21184;-87
2021/04/13 00:47:33;;;;;;;;;;;;;;;4.62;71.49;102126.68;1827194;77;20570;-87
2021/04/13 00:50:01;;;;;;;;;;;;;;;4.62;71.45;102123.66;1825536;78;20259;-87
2021/04/13 00:52:34;;;;;;;;;;;;;;;4.59;71.47;102116.91;1825509;78;20255;-87
2021/04/13 00:55:03;;;;;;;;;;;;;;;4.57;71.38;102122.83;1825514;78;21882;-88
2021/04/13 00:57:32;;;;;;;;;;;;;;;4.53;71.39;102125.61;1828191;77;20417;-87
2021/04/13 01:00:02;;;;;;;;;;;;;;;4.51;71.42;102123.70;1825602;78;20271;-88
2021/04/13 01:02:29;;;;;;;;;;;;;;;4.48;71.48;102122.66;1825458;78;20557;-87
2021/04/13 01:04:59;;;;;;;;;;;;;;;4.48;71.49;102123.96;1825613;78;20220;-88
2021/04/13 01:07:38;;;;;;;;;;;;;;;4.49;71.46;102128.80;1825603;78;21940;-87
2021/04/13 01:10:11;;;;;;;;;;;;;;;4.50;71.43;102121.87;1825429;78;21191;-88
2021/04/13 01:12:41;;;;;;;;;;;;;;;4.50;71.43;102129.70;1835443;77;20280;-87
2021/04/13 01:15:10;;;;;;;;;;;;;;;4.51;71.38;102134.13;1793574;78;21022;-88
2021/04/13 01:17:38;;;;;;;;;;;;;;;4.50;71.38;102130.59;1817235;79;20266;-88
2021/04/13 01:20:24;;;;;;;;;;;;;;;4.48;71.31;102134.39;1817143;79;21882;-86
2021/04/13 01:22:59;;;;;;;;;;;;;;;4.46;71.30;102129.47;1817121;79;20267;-88
2021/04/13 01:25:25;;;;;;;;;;;;;;;4.44;71.30;102132.77;1816502;78;20332;-87
2021/04/13 01:27:55;;;;;;;;;;;;;;;4.43;71.26;102137.46;1819074;78;20895;-88
2021/04/13 01:30:24;;;;;;;;;;;;;;;4.40;71.27;102137.27;1823689;78;20257;-87
2021/04/13 01:32:51;;;;;;;;;;;;;;;4.39;71.28;102141.95;1822848;78;21893;-87
2021/04/13 01:35:18;;;;;;;;;;;;;;;4.39;71.21;102140.66;1824117;78;20253;-88
2021/04/13 01:37:59;;;;;;;;;;;;;;;4.36;71.21;102141.34;1766736;78;20264;-87
2021/04/13 01:40:30;;;;;;;;;;;;;;;4.37;71.20;102139.64;1823207;78;20569;-88
2021/04/13 01:42:54;;;;;;;;;;;;;;;4.35;71.24;102139.52;1823791;78;20289;-88
2021/04/13 01:45:28;;;;;;;;;;;;;;;4.37;71.21;102145.75;1792769;78;21994;-89
2021/04/13 01:47:55;;;;;;;;;;;;;;;4.37;71.20;102150.06;1787534;79;20518;-88
2021/04/13 01:50:34;;;;;;;;;;;;;;;4.35;71.13;102149.95;1807996;79;20239;-87
2021/04/13 01:53:04;;;;;;;;;;;;;;;4.36;71.11;102143.95;1808010;79;20264;-88
2021/04/13 01:55:32;;;;;;;;;;;;;;;4.35;71.06;102148.64;1808131;79;20540;-88
2021/04/13 01:58:36;;;;;;;;;;;;;;;4.33;71.05;102143.72;1808105;79;21760;-88
2021/04/13 02:01:23;;;;;;;;;;;;;;;4.31;71.01;102149.22;1807971;79;21165;-85
2021/04/13 02:03:55;;;;;;;;;;;;;;;4.30;71.00;102150.03;1807898;79;20252;-87
2021/04/13 02:06:24;;;;;;;;;;;;;;;4.26;71.04;102137.55;1821145;78;20256;-86
2021/04/13 02:08:53;;;;;;;;;;;;;;;4.27;71.06;102140.68;1823671;78;20258;-87
2021/04/13 02:11:25;;;;;;;;;;;;;;;4.26;71.06;102144.06;1823689;78;22853;-85
2021/04/13 02:14:01;;;;;;;;;;;;;;;4.28;71.00;102143.81;1823254;78;21163;-88
2021/04/13 02:16:32;;;;;;;;;;;;;;;4.27;70.97;102146.78;1823888;78;20292;-87
2021/04/13 02:18:59;;;;;;;;;;;;;;;4.30;71.03;102138.30;1823587;78;20316;-87
2021/04/13 02:21:32;;;;;;;;;;;;;;;4.30;70.96;102139.61;1828079;77;20411;-87
2021/04/13 02:24:01;;;;;;;;;;;;;;;4.31;70.88;102141.41;1857187;77;21904;-87
2021/04/13 02:26:28;;;;;;;;;;;;;;;4.33;70.89;102137.61;1857279;77;20439;-87
2021/04/13 02:28:56;;;;;;;;;;;;;;;4.34;70.80;102142.05;1810365;78;20494;-88
2021/04/13 02:31:36;;;;;;;;;;;;;;;4.33;70.80;102142.83;1807324;79;21111;-86
2021/04/13 02:34:20;;;;;;;;;;;;;;;4.32;70.78;102143.60;1807331;78;20273;-88
2021/04/13 02:36:50;;;;;;;;;;;;;;;4.31;70.77;102141.41;1758728;81;22733;-88
2021/04/13 02:39:18;;;;;;;;;;;;;;;4.31;70.80;102143.11;1750728;82;20664;-88
2021/04/13 02:42:04;;;;;;;;;;;;;;;4.33;70.80;102136.30;1751120;81;20312;-89
2021/04/13 02:44:33;;;;;;;;;;;;;;;4.35;70.75;102134.71;1751102;82;20317;-88
2021/04/13 02:47:05;;;;;;;;;;;;;;;4.34;70.70;102133.81;1751156;82;20572;-88
2021/04/13 02:49:32;;;;;;;;;;;;;;;4.35;70.66;102132.11;1750865;81;21956;-87
2021/04/13 02:52:02;;;;;;;;;;;;;;;4.34;70.65;102135.53;1750869;82;20565;-87
2021/04/13 02:54:44;;;;;;;;;;;;;;;4.33;70.68;102143.72;1750892;81;20229;-87
2021/04/13 02:57:24;;;;;;;;;;;;;;;4.32;70.69;102135.41;1782684;80;20526;-87
2021/04/13 02:59:51;;;;;;;;;;;;;;;4.31;70.70;102139.20;1795570;80;20333;-86
2021/04/13 03:02:21;;;;;;;;;;;;;;;4.31;70.72;102139.20;1795416;80;21900;-87
2021/04/13 03:04:49;;;;;;;;;;;;;;;4.29;70.76;102138.68;1795223;80;20267;-88
2021/04/13 03:07:21;;;;;;;;;;;;;;;4.27;70.68;102141.58;1795561;80;20530;-87
2021/04/13 03:09:49;;;;;;;;;;;;;;;4.24;70.74;102145.28;1769651;80;20699;-88
2021/04/13 03:12:19;;;;;;;;;;;;;;;4.23;70.74;102147.36;1753631;80;20260;-88
2021/04/13 03:14:48;;;;;;;;;;;;;;;4.22;70.77;102154.69;1764482;81;21916;-88
2021/04/13 03:17:17;;;;;;;;;;;;;;;4.19;70.76;102159.67;1766165;81;20267;-88
2021/04/13 03:19:51;;;;;;;;;;;;;;;4.17;70.82;102161.27;1765964;81;20226;-87
2021/04/13 03:22:18;;;;;;;;;;;;;;;4.16;70.90;102165.05;1766315;80;20587;-88
2021/04/13 03:24:46;;;;;;;;;;;;;;;4.13;70.96;102163.51;1766209;81;20293;-88
2021/04/13 03:27:16;;;;;;;;;;;;;;;4.14;71.03;102172.75;1766139;79;21888;-87
2021/04/13 03:30:01;;;;;;;;;;;;;;;4.15;71.04;102174.58;1769008;80;20412;-87
2021/04/13 03:32:31;;;;;;;;;;;;;;;4.17;71.09;102179.91;1783104;80;20230;-87
2021/04/13 03:34:58;;;;;;;;;;;;;;;4.18;71.05;102175.19;1795398;80;21511;-87
2021/04/13 03:37:25;;;;;;;;;;;;;;;4.18;71.03;102170.88;1795642;80;20261;-86
2021/04/13 03:39:52;;;;;;;;;;;;;;;4.18;71.07;102176.08;1795427;80;22756;-87
2021/04/13 03:42:23;;;;;;;;;;;;;;;4.18;71.09;102180.00;1795184;80;20538;-86
2021/04/13 03:44:57;;;;;;;;;;;;;;;4.19;71.09;102181.82;1781733;80;20276;-86
2021/04/13 03:47:28;;;;;;;;;;;;;;;4.21;71.13;102174.12;1728012;81;20319;-86
2021/04/13 03:49:57;;;;;;;;;;;;;;;4.22;71.16;102178.52;1769897;80;20237;-86
2021/04/13 03:52:28;;;;;;;;;;;;;;;4.22;71.12;102179.45;1744982;81;21848;-87
2021/04/13 03:54:54;;;;;;;;;;;;;;;4.23;71.04;102178.64;1778057;80;20719;-87
2021/04/13 03:57:32;;;;;;;;;;;;;;;4.23;71.10;102180.34;1795607;80;20230;-86
2021/04/13 04:00:00;;;;;;;;;;;;;;;4.25;71.05;102180.96;1781977;80;21331;-85
2021/04/13 04:02:27;;;;;;;;;;;;;;;4.27;70.98;102184.58;1795692;80;20238;-87
2021/04/13 04:05:08;;;;;;;;;;;;;;;4.29;70.93;102193.42;1781453;80;21898;-88
2021/04/13 04:07:42;;;;;;;;;;;;;;;4.34;70.85;102187.66;1765712;80;20550;-86
2021/04/13 04:10:32;;;;;;;;;;;;;;;4.34;70.79;102184.66;1764983;81;20277;-85
2021/04/13 04:13:12;;;;;;;;;;;;;;;4.37;70.87;102187.87;1776904;80;21220;-86
2021/04/13 04:15:46;;;;;;;;;;;;;;;4.43;70.69;102189.61;1750645;82;20821;-88
2021/04/13 04:18:17;;;;;;;;;;;;;;;4.48;70.73;102191.75;1750736;80;21898;-89
2021/04/13 04:20:44;;;;;;;;;;;;;;;4.54;70.71;102192.59;1723728;82;21178;-90
2021/04/13 04:23:18;;;;;;;;;;;;;;;4.58;70.44;102192.05;1750202;80;20272;-91
2021/04/13 04:25:51;;;;;;;;;;;;;;;4.61;70.28;102193.55;1762664;79;20535;-90
2021/04/13 04:28:28;;;;;;;;;;;;;;;4.67;70.29;102199.23;1742527;81;20277;-90
2021/04/13 04:30:55;;;;;;;;;;;;;;;4.68;70.10;102193.20;1771682;81;22064;-80
2021/04/13 04:33:38;;;;;;;;;;;;;;;4.72;70.05;102194.74;1740635;80;21167;-79
2021/04/13 04:36:29;;;;;;;;;;;;;;;4.76;69.97;102198.08;1740820;81;20278;-86
2021/04/13 04:38:58;;;;;;;;;;;;;;;4.78;69.76;102202.59;1764544;80;20474;-80
2021/04/13 04:44:33;;;;;;;;;;;;;;;4.92;69.51;102206.58;1827731;76;20223;-88
2021/04/13 04:51:19;;;;;;;;;;;;;;;4.94;69.43;102212.44;1688985;85;20277;-87
2021/04/13 05:02:01;;;;;;;;;;;;;;;5.08;68.99;102214.71;1587053;89;20686;-91
2021/04/13 05:04:39;;;;;;;;;;;;;;;5.21;68.86;102223.02;1891707;75;20206;-84
2021/04/13 05:07:06;;;;;;;;;;;;;;;5.24;68.93;102225.44;1865420;77;20220;-85
2021/04/13 05:09:32;;;;;;;;;;;;;;;5.34;68.83;102224.38;1843989;77;21882;-81
2021/04/13 05:12:00;;;;;;;;;;;;;;;5.42;68.71;102227.14;1831377;76;21320;-83
2021/04/13 05:14:26;;;;;;;;;;;;;;;5.47;68.50;102223.53;1831291;78;20283;-84
2021/04/13 05:16:53;;;;;;;;;;;;;;;5.55;68.48;102226.66;1831704;78;20295;-85
2021/04/13 05:19:21;;;;;;;;;;;;;;;5.58;68.41;102225.17;1831746;78;20275;-85
2021/04/13 05:21:48;;;;;;;;;;;;;;;5.62;68.23;102226.30;1831696;78;22869;-85
2021/04/13 05:24:15;;;;;;;;;;;;;;;5.68;68.17;102224.50;1831472;78;20621;-84
2021/04/13 05:26:42;;;;;;;;;;;;;;;5.76;68.07;102225.91;1801695;78;20306;-85
2021/04/13 05:29:11;;;;;;;;;;;;;;;5.84;68.12;102221.73;1832887;76;20269;-84
2021/04/13 05:31:39;;;;;;;;;;;;;;;5.95;68.11;102218.91;1876094;76;20248;-84
2021/04/13 05:34:11;;;;;;;;;;;;;;;6.08;68.10;102219.00;1877028;76;21946;-85
2021/04/13 05:36:36;;;;;;;;;;;;;;;6.28;67.98;102220.71;1876083;76;21083;-84
2021/04/13 05:39:04;;;;;;;;;;;;;;;6.47;67.84;102221.52;1876924;76;20283;-82
2021/04/13 05:41:30;;;;;;;;;;;;;;;6.70;67.79;102223.92;1845416;76;20594;-83
2021/04/13 05:43:57;;;;;;;;;;;;;;;6.93;67.52;102227.09;1877103;76;20822;-83
2021/04/13 05:46:25;;;;;;;;;;;;;;;7.12;67.26;102230.05;1872492;76;21891;-84
2021/04/13 05:48:52;;;;;;;;;;;;;;;7.26;66.79;102228.28;1876880;76;21074;-85
2021/04/13 05:51:21;;;;;;;;;;;;;;;7.31;66.50;102228.17;1876951;76;20331;-87
2021/04/13 05:53:48;;;;;;;;;;;;;;;7.38;66.42;102221.61;1877039;76;20345;-87
2021/04/13 05:56:19;;;;;;;;;;;;;;;7.41;66.12;102219.16;1874250;76;20547;-87
2021/04/13 05:58:49;;;;;;;;;;;;;;;7.39;65.86;102220.41;1865357;77;21247;-84
2021/04/13 06:01:16;;;;;;;;;;;;;;;7.36;65.66;102216.27;1865106;77;20264;-82
2021/04/13 06:03:43;;;;;;;;;;;;;;;7.36;65.50;102221.93;1854565;76;20323;-81
2021/04/13 06:06:10;;;;;;;;;;;;;;;7.34;65.31;102220.52;1851443;77;21100;-82
2021/04/13 06:08:37;;;;;;;;;;;;;;;7.37;65.40;102219.79;1840404;77;20247;-81
2021/04/13 06:11:04;;;;;;;;;;;;;;;7.48;65.51;102229.21;1822781;77;21928;-80
2021/04/13 06:13:30;;;;;;;;;;;;;;;7.61;65.49;102220.80;1827688;78;20290;-80
2021/04/13 06:15:57;;;;;;;;;;;;;;;7.67;65.12;102225.09;1827067;78;20223;-80
2021/04/13 06:18:25;;;;;;;;;;;;;;;7.70;64.87;102231.43;1823178;77;20251;-80
2021/04/13 06:20:53;;;;;;;;;;;;;;;7.70;64.84;102226.19;1830078;77;20308;-81
2021/04/13 06:23:20;;;;;;;;;;;;;;;7.73;64.76;102234.25;1848624;76;22347;-80
2021/04/13 06:25:46;;;;;;;;;;;;;;;7.78;64.68;102234.51;1851433;77;21212;-80
2021/04/13 06:28:13;;;;;;;;;;;;;;;7.81;64.55;102233.77;1850705;77;20245;-81
2021/04/13 06:30:43;;;;;;;;;;;;;;;7.82;64.29;102239.12;1840623;77;20951;-82
2021/04/13 06:33:09;;;;;;;;;;;;;;;7.86;64.20;102237.17;1828477;77;20337;-81
2021/04/13 06:35:36;;;;;;;;;;;;;;;7.93;64.04;102231.48;1844845;77;21193;-80
2021/04/13 06:38:05;;;;;;;;;;;;;;;8.07;64.07;102233.63;1849832;77;20991;-86
2021/04/13 06:40:57;;;;;;;;;;;;;;;8.21;63.71;102236.16;1856471;76;20295;-87
2021/04/13 06:43:53;;;;;;;;;;;;;;;8.21;63.33;102235.74;1856401;77;21019;-79
2021/04/13 06:46:30;;;;;;;;;;;;;;;8.19;62.97;102234.75;1856259;77;20228;-87
2021/04/13 06:49:09;;;;;;;;;;;;;;;8.16;62.96;102234.56;1853496;77;21931;-88
2021/04/13 06:52:15;;;;;;;;;;;;;;;8.20;62.73;102240.89;1831518;77;20290;-88
2021/04/13 06:54:54;;;;;;;;;;;;;;;8.25;62.78;102240.34;1829438;77;20299;-79
2021/04/13 06:57:44;;;;;;;;;;;;;;;8.38;62.78;102238.92;1816788;77;21212;-80
2021/04/13 07:00:28;;;;;;;;;;;;;;;8.47;62.49;102235.98;1777025;79;20225;-81
2021/04/13 07:03:13;;;;;;;;;;;;;;;8.53;62.14;102246.81;1797566;78;21935;-79
2021/04/13 07:05:44;;;;;;;;;;;;;;;8.59;61.98;102244.05;1791597;80;20355;-82
2021/04/13 07:08:20;;;;;;;;;;;;;;;8.59;61.09;102239.70;1795528;78;20802;-83
2021/04/13 07:10:54;;;;;;;;;;;;;;;8.58;60.65;102235.28;1808193;78;20964;-80
2021/04/13 07:13:40;;;;;;;;;;;;;;;8.68;60.62;102235.39;1823170;78;20230;-82
2021/04/13 07:16:25;;;;;;;;;;;;;;;8.85;60.26;102237.23;1791806;79;22834;-80
2021/04/13 07:19:10;;;;;;;;;;;;;;;9.02;59.99;102243.84;1795962;78;20495;-81
2021/04/13 07:21:49;;;;;;;;;;;;;;;9.19;59.87;102242.14;1818202;78;20298;-82
2021/04/13 07:24:37;;;;;;;;;;;;;;;9.37;59.36;102246.19;1816133;78;20530;-82
2021/04/13 07:27:14;;;;;;;;;;;;;;;9.53;59.14;102252.34;1834356;78;20785;-81
2021/04/13 07:29:48;;;;;;;;;;;;;;;9.69;58.54;102246.16;1831038;78;21773;-82
2021/04/13 07:32:20;;;;;;;;;;;;;;;9.70;58.41;102253.63;1824722;78;21284;-81
2021/04/13 07:34:53;;;;;;;;;;;;;;;9.73;57.63;102256.42;1815316;78;20298;-83
2021/04/13 07:37:27;;;;;;;;;;;;;;;9.69;57.22;102253.15;1831169;78;20951;-83
2021/04/13 07:39:55;;;;;;;;;;;;;;;9.68;57.24;102253.53;1831107;78;20290;-83
2021/04/13 07:42:29;;;;;;;;;;;;;;;9.79;57.15;102256.73;1830995;78;22946;-83
2021/04/13 07:45:21;;;;;;;;;;;;;;;9.90;57.00;102247.68;1830368;78;21084;-81
2021/04/13 07:48:00;;;;;;;;;;;;;;;10.05;56.59;102250.62;1830831;78;20309;-81
2021/04/13 07:50:34;;;;;;;;;;;;;;;10.18;56.41;102243.83;1822479;78;20219;-80
2021/04/13 07:53:01;;;;;;;;;;;;;;;10.38;56.14;102253.16;1818389;78;20246;-80
2021/04/13 07:55:37;;;;;;;;;;;;;;;10.58;55.68;102240.57;1809505;78;22061;-81
2021/04/13 07:58:20;;;;;;;;;;;;;;;10.83;55.26;102241.75;1837700;77;20301;-82
2021/04/13 08:00:50;;;;;;;;;;;;;;;11.07;54.21;102243.33;1830647;78;20266;-83
2021/04/13 08:03:23;;;;;;;;;;;;;;;11.12;53.70;102251.05;1830594;77;20258;-81
2021/04/13 08:05:53;;;;;;;;;;;;;;;11.15;53.09;102247.25;1847316;76;20613;-82
2021/04/13 08:08:32;;;;;;;;;;;;;;;11.13;52.80;102250.63;1828728;76;22342;-79
2021/04/13 08:11:14;;;;;;;;;;;;;;;11.03;52.41;102252.83;1826519;76;20302;-81
2021/04/13 08:13:43;;;;;;;;;;;;;;;10.94;52.26;102252.39;1817293;76;20303;-82
2021/04/13 08:16:37;;;;;;;;;;;;;;;10.88;52.37;102258.69;1817146;78;20952;-81
2021/04/13 08:19:26;;;;;;;;;;;;;;;10.66;51.58;102261.63;1807323;78;20328;-78
2021/04/13 08:22:09;;;;;;;;;;;;;;;10.47;51.67;102262.45;1817213;76;21892;-81
2021/04/13 08:24:45;;;;;;;;;;;;;;;10.28;51.47;102257.03;1816532;76;20326;-80
2021/04/13 08:27:25;;;;;;;;;;;;;;;10.04;51.24;102262.88;1816568;77;20303;-81
2021/04/13 08:30:00;;;;;;;;;;;;;;;9.88;51.55;102258.95;1817519;78;20529;-80
2021/04/13 08:32:50;;;;;;;;;;;;;;;9.96;52.05;102265.92;1824678;76;20640;-84
2021/04/13 08:35:40;;;;;;;;;;;;;;;10.06;51.61;102264.24;1818104;76;21863;-81
2021/04/13 08:38:20;;;;;;;;;;;;;;;10.12;51.63;102255.38;1817093;79;20283;-81
2021/04/13 08:41:12;;;;;;;;;;;;;;;10.11;51.01;102253.55;1816422;79;20306;-81
2021/04/13 08:43:51;;;;;;;;;;;;;;;10.15;50.85;102257.25;1815889;78;20328;-81
2021/04/13 08:46:41;;;;;;;;;;;;;;;10.21;50.86;102254.53;1824549;76;20630;-80
2021/04/13 08:49:25;;;;;;;;;;;;;;;10.33;50.68;102262.16;1851785;76;21887;-80
2021/04/13 08:51:58;;;;;;;;;;;;;;;10.51;50.76;102254.29;1843841;76;21080;-80
2021/04/13 08:55:15;;;;;;;;;;;;;;;10.62;50.12;102245.58;1831284;76;20368;-81
2021/04/13 08:57:45;;;;;;;;;;;;;;;10.50;49.70;102253.36;1836216;76;20380;-82
2021/04/13 09:00:31;;;;;;;;;;;;;;;10.54;50.11;102247.84;1858381;76;20585;-84
2021/04/13 09:03:00;;;;;;;;;;;;;;;10.69;49.96;102255.16;1829130;76;21766;-82
2021/04/13 09:05:29;;;;;;;;;;;;;;;10.79;50.00;102242.44;1829764;76;20320;-80
2021/04/13 09:08:03;;;;;;;;;;;;;;;10.88;50.27;102247.73;1849981;76;20750;-81
2021/04/13 09:10:34;;;;;;;;;;;;;;;11.00;49.94;102250.45;1832449;76;20228;-82
2021/04/13 09:13:14;;;;;;;;;;;;;;;11.07;49.71;102246.90;1821224;78;22781;-82
2021/04/13 09:15:51;;;;;;;;;;;;;;;11.19;49.73;102249.62;1830643;77;20306;-81
2021/04/13 09:18:20;;;;;;;;;;;;;;;11.42;49.93;102242.33;1826097;77;20257;-82
2021/04/13 09:20:50;;;;;;;;;;;;;;;11.66;49.54;102239.00;1822874;77;20563;-82
2021/04/13 09:23:29;;;;;;;;;;;;;;;11.76;49.20;102241.20;1784778;78;20361;-83
2021/04/13 09:26:23;;;;;;;;;;;;;;;11.87;48.95;102232.02;1797088;78;21879;-82
2021/04/13 09:28:54;;;;;;;;;;;;;;;12.04;48.89;102239.80;1829840;76;20263;-82
2021/04/13 09:31:28;;;;;;;;;;;;;;;12.20;48.51;102236.98;1831334;77;20364;-81
2021/04/13 09:34:10;;;;;;;;;;;;;;;12.30;48.42;102235.62;1830393;77;21006;-80
2021/04/13 09:36:58;;;;;;;;;;;;;;;12.38;47.97;102231.98;1831750;77;20272;-82
2021/04/13 09:39:36;;;;;;;;;;;;;;;12.35;47.90;102232.77;1819518;78;21999;-82
2021/04/13 09:42:35;;;;;;;;;;;;;;;12.39;48.01;102228.52;1827329;78;20407;-80
2021/04/13 09:45:06;;;;;;;;;;;;;;;12.47;47.69;102227.50;1819465;78;20365;-81
2021/04/13 09:47:54;;;;;;;;;;;;;;;12.47;47.51;102229.72;1836643;77;20287;-83
2021/04/13 09:50:51;;;;;;;;;;;;;;;12.54;47.26;102225.17;1832605;77;20530;-81
2021/04/13 09:53:48;;;;;;;;;;;;;;;12.58;46.99;102229.73;1824331;77;22742;-82
2021/04/13 09:56:46;;;;;;;;;;;;;;;12.55;46.70;102219.46;1825499;78;20515;-81
2021/04/13 09:59:43;;;;;;;;;;;;;;;12.73;46.49;102207.42;1809646;78;20236;-82
2021/04/13 10:02:20;;;;;;;;;;;;;;;12.81;46.18;102216.54;1827882;78;20638;-81
2021/04/13 10:05:02;;;;;;;;;;;;;;;12.94;45.90;102216.17;1830776;77;21371;-82
2021/04/13 10:07:35;;;;;;;;;;;;;;;12.99;45.74;102220.33;1794073;80;21783;-82
2021/04/13 10:10:03;;;;;;;;;;;;;;;12.86;45.36;102214.98;1789276;80;20332;-81
2021/04/13 10:13:07;;;;;;;;;;;;;;;12.80;45.27;102213.40;1773169;79;20230;-82
2021/04/13 10:16:05;;;;;;;;;;;;;;;12.88;45.28;102213.73;1794209;80;20277;-83
2021/04/13 10:18:59;;;;;;;;;;;;;;;13.06;44.81;102211.77;1790154;79;20297;-81
2021/04/13 10:21:49;;;;;;;;;;;;;;;13.18;44.62;102201.67;1750091;80;21495;-81
2021/04/13 10:24:29;;;;;;;;;;;;;;;13.39;44.55;102205.99;1768347;79;20267;-82
2021/04/13 10:30:39;;;;;;;;;;;;;;;13.45;42.94;102193.41;1810836;77;20277;-84
2021/04/13 10:33:29;;;;;;;;;;;;;;;13.29;42.45;102203.41;1833108;77;20233;-83
2021/04/13 10:36:27;;;;;;;;;;;;;;;13.21;42.52;102202.20;1758465;77;22919;-84
2021/04/13 10:39:23;;;;;;;;;;;;;;;13.38;42.90;102196.25;1814778;78;20494;-81
2021/04/13 10:42:08;;;;;;;;;;;;;;;13.66;42.83;102191.95;1821781;77;20594;-80
2021/04/13 10:45:05;;;;;;;;;;;;;;;13.81;42.51;102191.16;1808585;77;21218;-81
2021/04/13 10:47:53;;;;;;;;;;;;;;;13.56;41.78;102181.47;1820066;77;20515;-82
2021/04/13 10:50:44;;;;;;;;;;;;;;;13.13;41.04;102181.19;1831846;77;22831;-80
2021/04/13 10:53:48;;;;;;;;;;;;;;;12.98;41.92;102181.52;1816333;76;20391;-81
2021/04/13 10:56:28;;;;;;;;;;;;;;;13.06;41.40;102182.69;1833540;77;20285;-80
2021/04/13 10:59:32;;;;;;;;;;;;;;;13.08;40.36;102181.00;1819208;77;20230;-80
2021/04/13 11:02:21;;;;;;;;;;;;;;;12.97;40.79;102181.02;1812121;77;20304;-82
2021/04/13 11:05:07;;;;;;;;;;;;;;;13.21;40.77;102179.72;1819655;77;21959;-81
2021/04/13 11:07:46;;;;;;;;;;;;;;;13.46;40.81;102180.25;1802443;78;20298;-81
2021/04/13 11:10:22;;;;;;;;;;;;;;;13.64;40.74;102181.74;1804815;79;20240;-81
2021/04/13 11:13:30;;;;;;;;;;;;;;;13.72;40.65;102178.93;1748526;78;20309;-91
2021/04/13 11:16:32;;;;;;;;;;;;;;;13.86;40.83;102177.67;1778807;79;20374;-78
2021/04/13 11:19:21;;;;;;;;;;;;;;;13.99;40.49;102175.91;1766581;80;21881;-77
2021/04/13 11:22:13;;;;;;;;;;;;;;;13.81;40.30;102169.98;1787715;79;21169;-77
2021/04/13 11:24:52;;;;;;;;;;;;;;;13.77;40.32;102175.59;1789618;79;20307;-77
2021/04/13 11:27:45;;;;;;;;;;;;;;;13.65;39.55;102174.30;1778659;78;20358;-78
2021/04/13 11:30:38;;;;;;;;;;;;;;;13.35;39.42;102167.95;1777551;78;20437;-79
2021/04/13 11:33:26;;;;;;;;;;;;;;;13.34;39.74;102167.46;1774549;78;21890;-79
2021/04/13 11:36:12;;;;;;;;;;;;;;;13.39;39.41;102168.53;1759658;80;20317;-79
2021/04/13 11:38:54;;;;;;;;;;;;;;;13.38;39.44;102160.54;1765229;80;20278;-79
2021/04/13 11:41:42;;;;;;;;;;;;;;;13.36;39.41;102156.55;1766079;80;20258;-81
2021/04/13 11:44:20;;;;;;;;;;;;;;;13.33;39.34;102151.56;1766006;78;20339;-80
2021/04/13 11:47:08;;;;;;;;;;;;;;;13.19;38.99;102148.36;1780561;78;21894;-80
2021/04/13 11:49:45;;;;;;;;;;;;;;;12.97;39.17;102149.30;1812924;77;20497;-80
2021/04/13 11:52:40;;;;;;;;;;;;;;;12.91;39.49;102156.58;1805667;77;20293;-80
2021/04/13 11:55:31;;;;;;;;;;;;;;;12.84;39.01;102154.14;1829573;77;20286;-79
2021/04/13 11:58:17;;;;;;;;;;;;;;;12.84;39.06;102146.64;1801741;77;20338;-80
2021/04/13 12:00:45;;;;;;;;;;;;;;;13.13;39.38;102150.36;1804335;77;21874;-80
2021/04/13 12:03:19;;;;;;;;;;;;;;;13.38;39.28;102153.92;1824225;77;20618;-81
2021/04/13 12:05:49;;;;;;;;;;;;;;;13.48;38.73;102162.69;1823906;77;20318;-81
2021/04/13 12:08:38;;;;;;;;;;;;;;;13.48;38.51;102159.16;1827645;77;21013;-80
2021/04/13 12:11:10;;;;;;;;;;;;;;;13.56;38.53;102159.88;1822495;77;20320;-80
2021/04/13 12:13:40;;;;;;;;;;;;;;;13.52;38.12;102157.09;1827182;77;21963;-78
2021/04/13 12:16:09;;;;;;;;;;;;;;;13.27;37.83;102153.53;1834316;77;20293;-79
2021/04/13 12:18:40;;;;;;;;;;;;;;;13.20;37.93;102166.05;1820886;77;20595;-78
2021/04/13 12:21:25;;;;;;;;;;;;;;;13.06;38.01;102154.05;1821621;77;20639;-79
2021/04/13 12:24:00;;;;;;;;;;;;;;;13.12;37.97;102156.51;1808203;77;20296;-78
2021/04/13 12:26:43;;;;;;;;;;;;;;;13.39;37.96;102150.45;1799853;78;21950;-77
2021/04/13 12:29:22;;;;;;;;;;;;;;;13.66;38.01;102151.83;1793123;79;21066;-78
2021/04/13 12:32:14;;;;;;;;;;;;;;;13.79;37.57;102153.16;1810725;77;20673;-77
2021/04/13 12:34:47;;;;;;;;;;;;;;;13.63;37.72;102157.04;1826723;77;20314;-78
2021/04/13 12:37:37;;;;;;;;;;;;;;;13.17;38.85;102156.23;1808584;77;20500;-77
2021/04/13 12:40:16;;;;;;;;;;;;;;;12.50;40.06;102153.66;1807438;77;22045;-79
2021/04/13 12:42:46;;;;;;;;;;;;;;;12.09;41.51;102161.72;1807201;77;20263;-78
2021/04/13 12:45:23;;;;;;;;;;;;;;;11.81;42.56;102158.31;1809811;77;20320;-77
2021/04/13 12:48:02;;;;;;;;;;;;;;;11.74;43.16;102170.75;1803915;78;21013;-79
2021/04/13 12:50:34;;;;;;;;;;;;;;;11.50;43.41;102158.30;1687939;83;20541;-78
2021/04/13 12:53:14;;;;;;;;;;;;;;;11.21;43.76;102164.50;1869670;76;20687;-78
2021/04/13 12:55:41;;;;;;;;;;;;;;;10.87;44.09;102165.59;1851874;77;20312;-79
2021/04/13 12:58:12;;;;;;;;;;;;;;;10.58;44.72;102166.84;1849138;77;21875;-80
2021/04/13 13:00:43;;;;;;;;;;;;;;;10.31;45.31;102167.33;1852147;77;20296;-84
2021/04/13 13:03:14;;;;;;;;;;;;;;;10.23;46.00;102180.50;1852514;77;20503;-82
2021/04/13 13:05:42;;;;;;;;;;;;;;;10.05;46.49;102178.27;1850182;77;20253;-82
2021/04/13 13:08:10;;;;;;;;;;;;;;;9.90;46.88;102184.97;1813360;77;20272;-82
2021/04/13 13:10:38;;;;;;;;;;;;;;;9.87;47.35;102184.81;1836736;77;22865;-81
2021/04/13 13:13:20;;;;;;;;;;;;;;;9.79;47.40;102185.73;1852162;77;20381;-80
2021/04/13 13:15:47;;;;;;;;;;;;;;;9.74;47.77;102188.53;1852259;77;20297;-85
2021/04/13 13:18:21;;;;;;;;;;;;;;;9.69;48.11;102184.79;1837811;77;20292;-85
2021/04/13 13:20:49;;;;;;;;;;;;;;;9.65;48.34;102186.35;1820456;77;20549;-85
2021/04/13 13:23:31;;;;;;;;;;;;;;;9.58;48.29;102189.90;1845155;77;21939;-84
2021/04/13 13:26:10;;;;;;;;;;;;;;;9.48;48.52;102193.36;1852209;77;20295;-85
2021/04/13 13:28:45;;;;;;;;;;;;;;;9.42;48.54;102187.80;1847215;77;20374;-84
2021/04/13 13:31:18;;;;;;;;;;;;;;;9.48;48.99;102189.41;1852174;77;20618;-84
2021/04/13 13:33:46;;;;;;;;;;;;;;;9.66;48.77;102194.71;1852246;77;20902;-84
2021/04/13 13:36:15;;;;;;;;;;;;;;;9.64;48.74;102188.89;1804319;77;21434;-82
2021/04/13 13:38:43;;;;;;;;;;;;;;;9.59;48.95;102189.98;1813410;79;21150;-83
2021/04/13 13:41:11;;;;;;;;;;;;;;;9.59;49.02;102182.48;1813510;79;20283;-83
2021/04/13 13:43:38;;;;;;;;;;;;;;;9.60;49.09;102182.99;1821152;77;20323;-84
2021/04/13 13:46:22;;;;;;;;;;;;;;;9.54;49.21;102188.84;1851891;77;20490;-84
2021/04/13 13:48:50;;;;;;;;;;;;;;;9.56;49.35;102183.66;1852093;77;21883;-79